Time;durP1;ratioP1;P1;durP2;ratioP2;P2;SDS_P1;SDS_P2;PMS_P1;PMS_P2;Temp;Humidity;BMP_temperature;BMP_pressure;BME280_temperature;BME280_humidity;BME280_pressure;Samples;Min_cycle;Max_cycle;Signal;HPM_P1;HPM_P2
2021/06/17 00:01:22;;;;;;;3.08;2.88;;;26.30;58.90;;;;;;5019434;28;20049;-61
2021/06/17 00:03:47;;;;;;;3.38;3.08;;;25.90;58.60;;;;;;5018912;28;20488;-61
2021/06/17 00:06:13;;;;;;;3.75;3.45;;;26.10;58.80;;;;;;5019070;28;20048;-61
2021/06/17 00:08:40;;;;;;;3.33;3.03;;;26.10;58.80;;;;;;5019048;28;20013;-61
2021/06/17 00:11:07;;;;;;;5.07;3.22;;;26.10;58.80;;;;;;5019251;28;20030;-61
2021/06/17 00:13:36;;;;;;;3.95;3.38;;;26.10;58.80;;;;;;5019257;28;20041;-61
2021/06/17 00:16:05;;;;;;;3.33;3.10;;;26.10;58.80;;;;;;5019369;28;20021;-61
2021/06/17 00:18:32;;;;;;;4.22;3.33;;;26.10;58.80;;;;;;5018964;28;20285;-61
2021/06/17 00:21:02;;;;;;;3.35;3.05;;;26.10;58.80;;;;;;5017666;28;20388;-61
2021/06/17 00:23:28;;;;;;;3.47;3.13;;;26.30;59.00;;;;;;5019315;28;20022;-61
2021/06/17 00:25:54;;;;;;;3.28;3.08;;;26.20;58.90;;;;;;5019194;28;20025;-61
2021/06/17 00:28:19;;;;;;;3.25;2.85;;;26.10;58.80;;;;;;5018886;28;20033;-61
2021/06/17 00:30:45;;;;;;;3.58;3.28;;;26.10;58.80;;;;;;5018769;28;20021;-61
2021/06/17 00:33:11;;;;;;;3.47;3.13;;;26.10;58.90;;;;;;5019081;28;20535;-61
2021/06/17 00:35:36;;;;;;;4.20;3.67;;;26.20;59.00;;;;;;5017567;28;20026;-61
2021/06/17 00:38:04;;;;;;;3.30;3.00;;;26.00;58.80;;;;;;5018806;28;20533;-61
2021/06/17 00:40:30;;;;;;;3.40;3.10;;;26.00;58.80;;;;;;5018854;28;20493;-61
2021/06/17 00:42:57;;;;;;;3.67;3.40;;;26.10;58.90;;;;;;5018734;28;20026;-61
2021/06/17 00:45:30;;;;;;;3.50;3.20;;;26.20;59.00;;;;;;5016340;28;20518;-62
2021/06/17 00:47:57;;;;;;;4.30;3.10;;;26.00;59.50;;;;;;5015806;28;20061;-61
2021/06/17 00:50:26;;;;;;;3.95;3.55;;;26.10;59.00;;;;;;5014688;28;20045;-61
2021/06/17 00:52:52;;;;;;;3.33;3.03;;;26.00;58.90;;;;;;5015293;28;20038;-61
2021/06/17 00:55:17;;;;;;;3.90;3.50;;;26.10;59.00;;;;;;5015823;28;20072;-61
2021/06/17 00:57:43;;;;;;;3.33;3.03;;;26.30;59.10;;;;;;5015353;28;20058;-61
2021/06/17 01:00:12;;;;;;;3.67;3.28;;;26.10;59.00;;;;;;5015268;28;20381;-61
2021/06/17 01:02:38;;;;;;;3.55;3.25;;;26.00;58.90;;;;;;5015413;28;20018;-61
2021/06/17 01:05:12;;;;;;;4.68;3.63;;;26.00;58.90;;;;;;5015159;28;20056;-62
2021/06/17 01:07:44;;;;;;;3.22;2.92;;;26.00;58.90;;;;;;5015077;28;20544;-61
2021/06/17 01:10:15;;;;;;;3.45;3.15;;;26.00;58.90;;;;;;5015501;28;20092;-61
2021/06/17 01:13:15;;;;;;;3.70;3.40;;;26.00;58.90;;;;;;5015334;28;20040;-62
2021/06/17 01:15:50;;;;;;;3.88;2.78;;;26.10;59.00;;;;;;5015266;28;20676;-62
2021/06/17 01:18:17;;;;;;;3.50;3.20;;;26.00;58.90;;;;;;5013919;28;20377;-61
2021/06/17 01:20:53;;;;;;;4.32;3.40;;;26.00;58.90;;;;;;5013812;28;20030;-61
2021/06/17 01:23:37;;;;;;;3.70;3.40;;;26.00;58.90;;;;;;5015246;28;20068;-61
2021/06/17 01:26:12;;;;;;;4.25;3.50;;;26.00;58.90;;;;;;5015375;28;20042;-61
2021/06/17 01:28:40;;;;;;;4.90;3.50;;;26.00;58.90;;;;;;5015377;28;20022;-61
2021/06/17 01:31:12;;;;;;;3.50;3.20;;;25.90;80.50;;;;;;5014857;28;20477;-61
2021/06/17 01:33:44;;;;;;;3.83;3.53;;;26.00;58.90;;;;;;5015100;28;20091;-61
2021/06/17 01:36:17;;;;;;;4.05;3.30;;;26.00;58.90;;;;;;5015013;28;20076;-61
2021/06/17 01:38:52;;;;;;;4.65;2.90;;;26.00;58.90;;;;;;5013482;28;20079;-61
2021/06/17 01:41:24;;;;;;;3.63;3.33;;;26.00;58.90;;;;;;5015086;28;20541;-61
2021/06/17 01:43:51;;;;;;;8.02;3.25;;;26.00;58.90;;;;;;5014940;28;20076;-61
2021/06/17 01:46:18;;;;;;;3.15;2.85;;;26.10;59.00;;;;;;5014915;28;20026;-62
2021/06/17 01:48:45;;;;;;;4.50;3.30;;;26.00;58.90;;;;;;5013320;28;20076;-62
2021/06/17 01:51:11;;;;;;;4.63;3.42;;;26.20;59.00;;;;;;5014641;28;20088;-61
2021/06/17 01:53:38;;;;;;;3.53;3.20;;;26.00;59.60;;;;;;5014480;28;20480;-61
2021/06/17 01:56:05;;;;;;;4.13;3.63;;;26.00;59.00;;;;;;5014333;28;20092;-61
2021/06/17 01:58:32;;;;;;;3.22;3.03;;;26.00;58.90;;;;;;5013860;28;20461;-61
2021/06/17 02:00:59;;;;;;;3.80;3.50;;;26.00;58.90;;;;;;5014608;28;20034;-61
2021/06/17 02:03:26;;;;;;;4.57;3.60;;;26.00;58.90;;;;;;5014278;28;20030;-60
2021/06/17 02:05:52;;;;;;;3.17;2.97;;;26.00;58.90;;;;;;5014256;28;20040;-61
2021/06/17 02:08:20;;;;;;;3.85;3.00;;;26.00;58.90;;;;;;5014233;28;20037;-61
2021/06/17 02:10:47;;;;;;;3.30;3.00;;;26.20;59.00;;;;;;5014059;28;20083;-61
2021/06/17 02:13:15;;;;;;;4.47;3.60;;;26.00;58.90;;;;;;5014080;28;20037;-61
2021/06/17 02:15:46;;;;;;;3.78;3.47;;;26.00;58.90;;;;;;5014253;28;20389;-61
2021/06/17 02:18:15;;;;;;;3.55;3.25;;;26.00;58.90;;;;;;5014259;28;20018;-61
2021/06/17 02:20:41;;;;;;;3.53;3.13;;;26.00;58.90;;;;;;5014181;28;20010;-60
2021/06/17 02:23:12;;;;;;;3.63;3.33;;;26.00;58.90;;;;;;5014216;28;20026;-61
2021/06/17 02:25:38;;;;;;;3.88;3.47;;;26.00;58.90;;;;;;5014198;28;20107;-61
2021/06/17 02:28:12;;;;;;;3.88;3.50;;;25.90;58.80;;;;;;5013789;28;20117;-60
2021/06/17 02:30:41;;;;;;;3.75;3.33;;;25.90;58.90;;;;;;5013773;28;20581;-61
2021/06/17 02:33:09;;;;;;;4.32;3.22;;;25.90;58.90;;;;;;5013945;28;20042;-61
2021/06/17 02:35:37;;;;;;;3.95;3.60;;;25.90;58.90;;;;;;5013623;28;20404;-61
2021/06/17 02:38:07;;;;;;;3.53;3.22;;;26.30;59.10;;;;;;5013592;28;20037;-61
2021/06/17 02:40:38;;;;;;;3.92;3.53;;;25.90;58.90;;;;;;5013905;28;20033;-61
2021/06/17 02:43:11;;;;;;;3.88;3.58;;;25.90;58.90;;;;;;5013533;28;20033;-61
2021/06/17 02:45:37;;;;;;;4.28;3.15;;;25.90;58.90;;;;;;5013843;28;20100;-61
2021/06/17 02:48:03;;;;;;;4.35;3.92;;;25.90;58.90;;;;;;5013707;28;20123;-61
2021/06/17 02:50:29;;;;;;;4.05;3.65;;;25.90;58.90;;;;;;5013696;28;20458;-61
2021/06/17 02:52:54;;;;;;;4.05;3.70;;;25.90;58.90;;;;;;5013232;28;20037;-61
2021/06/17 02:55:52;;;;;;;3.90;3.50;;;25.90;58.90;;;;;;5013643;28;20105;-61
2021/06/17 02:58:55;;;;;;;3.50;3.25;;;25.90;58.80;;;;;;5012024;28;20025;-61
2021/06/17 03:01:33;;;;;;;4.20;3.88;;;25.90;58.80;;;;;;5013244;28;20034;-61
2021/06/17 03:04:06;;;;;;;3.53;3.22;;;25.90;58.80;;;;;;5012996;28;20081;-61
2021/06/17 03:06:39;;;;;;;3.70;3.40;;;25.90;58.90;;;;;;5013215;28;20075;-61
2021/06/17 03:09:09;;;;;;;4.40;4.00;;;25.90;58.80;;;;;;5012983;28;20018;-61
2021/06/17 03:11:36;;;;;;;5.57;4.18;;;25.90;58.80;;;;;;5013088;28;20432;-61
2021/06/17 03:14:12;;;;;;;4.10;3.70;;;25.90;58.80;;;;;;5013085;28;20018;-61
2021/06/17 03:16:38;;;;;;;4.90;3.53;;;25.90;58.80;;;;;;5013097;28;20107;-61
2021/06/17 03:19:05;;;;;;;4.05;3.65;;;26.10;59.00;;;;;;5012951;28;20105;-61
2021/06/17 03:21:35;;;;;;;5.68;4.22;;;25.90;58.80;;;;;;5013242;28;20033;-61
2021/06/17 03:24:03;;;;;;;3.90;3.60;;;25.80;58.80;;;;;;5012942;28;20029;-61
2021/06/17 03:26:30;;;;;;;4.60;4.30;;;25.80;58.80;;;;;;5012877;28;20021;-61
2021/06/17 03:28:57;;;;;;;3.55;3.33;;;25.90;58.80;;;;;;5012767;28;20077;-61
2021/06/17 03:31:25;;;;;;;3.95;3.65;;;25.80;58.80;;;;;;5012832;28;20029;-61
2021/06/17 03:33:52;;;;;;;4.25;3.85;;;25.80;58.80;;;;;;5012804;28;20041;-61
2021/06/17 03:36:18;;;;;;;4.00;3.60;;;26.00;58.90;;;;;;5013110;28;20033;-61
2021/06/17 03:38:45;;;;;;;4.45;3.88;;;25.90;58.80;;;;;;5012832;28;20034;-61
2021/06/17 03:41:13;;;;;;;3.97;3.67;;;25.80;58.80;;;;;;5013080;28;20129;-60
2021/06/17 03:43:40;;;;;;;3.78;3.45;;;26.30;59.10;;;;;;5013093;28;20091;-61
2021/06/17 03:46:09;;;;;;;3.88;3.58;;;26.00;58.90;;;;;;5012656;28;20018;-61
2021/06/17 03:48:38;;;;;;;3.60;3.33;;;25.80;58.80;;;;;;5013000;28;20029;-61
2021/06/17 03:51:05;;;;;;;3.87;3.53;;;26.00;80.50;;;;;;5012538;28;20497;-61
2021/06/17 03:53:31;;;;;;;3.70;3.38;;;25.80;58.80;;;;;;5012889;28;20053;-61
2021/06/17 03:55:59;;;;;;;3.90;3.60;;;25.80;58.80;;;;;;5012623;28;20029;-61
2021/06/17 03:58:26;;;;;;;4.15;3.75;;;25.90;58.80;;;;;;5012611;28;20604;-61
2021/06/17 04:00:55;;;;;;;3.85;3.22;;;25.80;58.80;;;;;;5012641;28;20029;-61
2021/06/17 04:03:23;;;;;;;4.40;4.00;;;25.80;58.70;;;;;;5012648;28;20026;-61
2021/06/17 04:05:49;;;;;;;3.70;3.40;;;26.00;58.90;;;;;;5012928;28;20500;-61
2021/06/17 04:08:16;;;;;;;3.95;3.65;;;25.80;58.80;;;;;;5012567;28;20029;-61
2021/06/17 04:10:42;;;;;;;4.30;3.83;;;25.80;58.70;;;;;;5011296;28;20026;-61
2021/06/17 04:13:11;;;;;;;4.07;3.67;;;25.80;58.70;;;;;;5012476;28;20488;-61
2021/06/17 04:15:38;;;;;;;3.88;3.47;;;25.80;58.70;;;;;;5012470;28;20026;-61
2021/06/17 04:18:05;;;;;;;3.60;3.30;;;25.80;58.10;;;;;;5012732;28;20135;-61
2021/06/17 04:20:36;;;;;;;3.97;3.42;;;25.80;58.70;;;;;;5012350;28;20093;-61
2021/06/17 04:23:04;;;;;;;4.05;3.58;;;25.90;58.70;;;;;;5016294;28;20022;-61
2021/06/17 04:25:31;;;;;;;3.92;3.63;;;25.80;58.70;;;;;;5016163;28;20049;-61
2021/06/17 04:28:01;;;;;;;3.78;3.40;;;25.80;58.70;;;;;;5016364;28;20026;-61
2021/06/17 04:30:28;;;;;;;4.78;3.60;;;25.80;58.70;;;;;;5016365;28;20014;-61
2021/06/17 04:32:56;;;;;;;3.50;3.20;;;25.80;58.70;;;;;;5015931;28;20034;-61
2021/06/17 04:35:24;;;;;;;3.53;3.25;;;25.80;58.70;;;;;;5016115;28;20575;-61
2021/06/17 04:37:51;;;;;;;3.75;3.40;;;25.80;58.70;;;;;;5016117;28;20376;-61
2021/06/17 04:40:18;;;;;;;3.53;3.30;;;25.80;58.70;;;;;;5016113;28;20018;-61
2021/06/17 04:42:44;;;;;;;4.07;3.78;;;25.90;58.70;;;;;;5016005;28;20022;-61
2021/06/17 04:45:10;;;;;;;4.13;3.60;;;25.70;58.60;;;;;;5015970;28;20033;-61
2021/06/17 04:47:38;;;;;;;3.83;3.45;;;25.80;58.70;;;;;;5015674;28;20026;-61
2021/06/17 04:50:08;;;;;;;3.45;3.20;;;25.70;58.60;;;;;;5015461;28;20465;-61
2021/06/17 04:52:51;;;;;;;3.63;3.30;;;25.70;58.60;;;;;;5015434;28;20049;-61
2021/06/17 04:55:18;;;;;;;3.70;3.40;;;25.70;58.70;;;;;;5015820;28;20018;-61
2021/06/17 04:57:43;;;;;;;3.70;3.40;;;25.70;58.60;;;;;;5015716;28;20109;-61
2021/06/17 05:00:10;;;;;;;4.25;3.90;;;25.70;58.50;;;;;;5015934;28;20418;-61
2021/06/17 05:02:35;;;;;;;3.92;3.63;;;25.80;58.50;;;;;;5015318;28;20030;-61
2021/06/17 05:05:01;;;;;;;3.15;2.92;;;25.80;58.50;;;;;;5015175;28;20181;-61
2021/06/17 05:12:43;;;;;;;4.88;3.63;;;25.80;58.70;;;;;;5014059;28;20119;-61
2021/06/17 05:15:09;;;;;;;3.60;3.30;;;25.80;58.80;;;;;;5015200;28;20512;-61
2021/06/17 05:17:34;;;;;;;4.75;3.50;;;25.80;58.70;;;;;;5015187;28;20554;-61
2021/06/17 05:20:01;;;;;;;3.97;3.67;;;25.80;58.80;;;;;;5015075;28;20033;-60
2021/06/17 05:22:27;;;;;;;3.33;3.03;;;25.80;58.80;;;;;;5015382;28;20026;-62
2021/06/17 05:24:53;;;;;;;4.35;3.42;;;25.90;58.80;;;;;;5015241;28;20024;-62
2021/06/17 05:27:18;;;;;;;4.90;3.40;;;25.80;58.90;;;;;;5015030;28;20068;-62
2021/06/17 05:29:44;;;;;;;3.60;3.30;;;25.80;59.00;;;;;;5015236;28;20050;-62
2021/06/17 05:32:10;;;;;;;4.75;4.03;;;25.80;59.20;;;;;;5013300;28;20057;-61
2021/06/17 05:34:36;;;;;;;4.82;3.53;;;25.90;59.10;;;;;;5015112;28;20030;-62
2021/06/17 05:37:02;;;;;;;3.63;3.33;;;26.20;59.30;;;;;;5014995;28;20535;-61
2021/06/17 05:39:27;;;;;;;3.50;3.25;;;25.80;58.80;;;;;;5013172;28;20033;-62
2021/06/17 05:41:53;;;;;;;3.95;3.45;;;26.10;59.10;;;;;;5014583;28;20030;-62
2021/06/17 05:44:19;;;;;;;4.95;3.80;;;25.80;58.80;;;;;;5014457;28;20097;-62
2021/06/17 05:46:44;;;;;;;3.50;3.20;;;25.80;58.80;;;;;;5014749;28;20429;-62
2021/06/17 05:49:10;;;;;;;3.60;3.28;;;25.80;58.90;;;;;;5014720;28;20117;-63
2021/06/17 05:51:35;;;;;;;3.80;3.50;;;25.80;58.80;;;;;;5014293;28;20029;-62
2021/06/17 05:54:01;;;;;;;4.65;3.50;;;25.80;58.90;;;;;;5014597;28;20040;-61
2021/06/17 05:56:27;;;;;;;3.97;3.55;;;25.80;58.90;;;;;;5014611;28;20029;-61
2021/06/17 05:58:53;;;;;;;3.58;3.28;;;25.80;58.90;;;;;;5014510;28;20366;-62
2021/06/17 06:01:20;;;;;;;3.70;3.20;;;25.80;58.90;;;;;;5014449;28;20373;-61
2021/06/17 06:03:46;;;;;;;3.58;3.13;;;25.80;59.10;;;;;;5014307;28;20046;-61
2021/06/17 06:06:11;;;;;;;3.78;3.20;;;25.80;59.00;;;;;;5012821;28;20369;-61
2021/06/17 06:08:37;;;;;;;3.40;3.10;;;25.80;58.90;;;;;;5014208;28;20495;-61
2021/06/17 06:11:02;;;;;;;5.05;3.83;;;25.80;59.00;;;;;;5014050;28;20026;-62
2021/06/17 06:13:30;;;;;;;4.22;3.33;;;25.80;59.00;;;;;;5014377;28;20026;-62
2021/06/17 06:15:56;;;;;;;3.97;3.58;;;25.80;59.00;;;;;;5014030;28;20366;-62
2021/06/17 06:18:25;;;;;;;5.85;3.60;;;25.90;59.20;;;;;;5014251;28;20028;-63
2021/06/17 06:20:56;;;;;;;3.92;3.47;;;25.80;59.10;;;;;;5014110;28;20030;-62
2021/06/17 06:23:22;;;;;;;4.18;3.63;;;25.80;59.10;;;;;;5014076;28;20026;-62
2021/06/17 06:25:49;;;;;;;5.78;3.95;;;25.80;59.20;;;;;;5014006;28;20461;-62
2021/06/17 06:28:15;;;;;;;4.75;4.20;;;26.10;59.30;;;;;;5014229;28;20040;-62
2021/06/17 06:30:41;;;;;;;6.57;3.50;;;25.80;59.10;;;;;;5013649;28;20018;-62
2021/06/17 06:33:06;;;;;;;5.25;4.25;;;25.90;59.20;;;;;;5013714;28;20038;-62
2021/06/17 06:35:32;;;;;;;4.97;4.00;;;25.80;59.20;;;;;;5013773;28;20026;-62
2021/06/17 06:37:58;;;;;;;8.02;4.30;;;25.80;59.20;;;;;;5013945;28;20080;-62
2021/06/17 06:40:25;;;;;;;6.63;4.80;;;25.90;59.10;;;;;;5012453;28;20354;-62
2021/06/17 06:42:52;;;;;;;6.28;4.70;;;25.90;59.00;;;;;;5013302;28;20029;-63
2021/06/17 06:45:18;;;;;;;6.35;4.80;;;25.90;58.80;;;;;;5013618;28;20033;-62
2021/06/17 06:47:44;;;;;;;5.53;4.97;;;25.90;58.50;;;;;;5013979;28;20018;-62
2021/06/17 06:50:10;;;;;;;10.75;5.82;;;25.90;58.20;;;;;;5013501;28;20108;-61
2021/06/17 06:52:36;;;;;;;7.18;5.03;;;25.90;57.60;;;;;;5012155;28;20042;-62
2021/06/17 06:55:03;;;;;;;5.82;4.93;;;25.90;57.90;;;;;;5013583;28;20388;-62
2021/06/17 06:57:30;;;;;;;9.75;4.80;;;25.90;57.40;;;;;;5013289;28;20026;-62
2021/06/17 06:59:55;;;;;;;7.00;4.07;;;25.90;57.00;;;;;;5013316;28;20026;-61
2021/06/17 07:02:21;;;;;;;9.68;5.10;;;26.00;57.20;;;;;;5012013;28;20022;-62
2021/06/17 07:04:47;;;;;;;13.80;4.50;;;25.90;57.10;;;;;;5013082;28;20050;-65
2021/06/17 07:07:13;;;;;;;8.60;4.20;;;25.90;57.00;;;;;;5013516;28;20022;-62
2021/06/17 07:09:39;;;;;;;6.13;3.80;;;26.00;57.20;;;;;;5013470;28;20504;-61
2021/06/17 07:12:06;;;;;;;15.73;4.25;;;25.90;57.20;;;;;;5013231;28;20509;-61
2021/06/17 07:14:33;;;;;;;7.75;3.53;;;25.90;57.30;;;;;;5011731;28;20120;-61
2021/06/17 07:17:00;;;;;;;9.52;3.70;;;25.90;57.60;;;;;;5011904;28;20442;-61
2021/06/17 07:19:26;;;;;;;8.75;4.32;;;26.00;57.70;;;;;;5013441;28;20083;-61
2021/06/17 07:21:52;;;;;;;7.28;3.95;;;25.90;57.50;;;;;;5013142;28;20412;-61
2021/06/17 07:24:17;;;;;;;8.95;3.05;;;25.90;57.70;;;;;;5013055;28;20480;-60
2021/06/17 07:26:43;;;;;;;7.50;3.45;;;25.90;58.00;;;;;;5013066;28;20037;-61
2021/06/17 07:29:09;;;;;;;9.50;3.53;;;26.00;58.10;;;;;;5012283;28;20025;-61
2021/06/17 07:31:37;;;;;;;10.27;3.42;;;25.90;58.10;;;;;;5012916;28;20627;-61
2021/06/17 07:34:03;;;;;;;6.80;3.42;;;25.90;58.10;;;;;;5013014;28;20385;-61
2021/06/17 07:36:29;;;;;;;7.53;3.75;;;26.00;58.20;;;;;;5013171;28;20022;-62
2021/06/17 07:38:55;;;;;;;9.90;3.05;;;25.90;58.30;;;;;;5013206;28;20036;-61
2021/06/17 07:41:21;;;;;;;9.05;3.70;;;25.90;58.60;;;;;;5013200;28;20018;-61
2021/06/17 07:43:47;;;;;;;6.93;3.42;;;25.90;58.50;;;;;;5012777;28;20026;-60
2021/06/17 07:46:12;;;;;;;9.70;3.13;;;25.90;58.70;;;;;;5012616;28;20025;-61
2021/06/17 07:48:38;;;;;;;6.82;2.85;;;26.00;59.10;;;;;;5012681;28;20026;-60
2021/06/17 07:51:08;;;;;;;8.63;3.03;;;26.00;59.30;;;;;;5012703;28;20028;-60
2021/06/17 07:53:34;;;;;;;8.63;3.78;;;26.00;59.70;;;;;;5012524;28;20477;-60
2021/06/17 07:56:00;;;;;;;7.43;3.55;;;26.00;59.20;;;;;;5014817;28;20105;-60
2021/06/17 07:58:26;;;;;;;5.82;2.53;;;26.50;59.60;;;;;;5015170;28;20065;-60
2021/06/17 08:00:51;;;;;;;9.77;2.90;;;26.10;59.50;;;;;;5016452;28;20024;-61
2021/06/17 08:03:17;;;;;;;8.77;3.22;;;26.00;59.40;;;;;;5016503;28;20068;-58
2021/06/17 08:05:42;;;;;;;8.05;2.95;;;26.00;59.50;;;;;;5016219;28;20034;-60
2021/06/17 08:08:08;;;;;;;5.25;2.50;;;26.30;59.50;;;;;;5016499;28;20061;-60
2021/06/17 08:10:34;;;;;;;8.98;2.85;;;26.00;59.40;;;;;;5016181;28;20021;-61
2021/06/17 08:13:00;;;;;;;6.90;2.78;;;26.00;59.60;;;;;;5015146;28;20110;-60
2021/06/17 08:15:26;;;;;;;3.83;2.97;;;26.10;59.60;;;;;;5016449;28;20038;-60
2021/06/17 08:17:53;;;;;;;5.40;2.88;;;26.10;59.60;;;;;;5016180;28;20353;-61
2021/06/17 08:20:19;;;;;;;7.00;3.33;;;26.10;59.20;;;;;;5016344;28;20022;-61
2021/06/17 08:22:45;;;;;;;4.88;2.78;;;26.10;59.10;;;;;;5016005;28;20030;-60
2021/06/17 08:25:12;;;;;;;8.40;2.95;;;26.10;59.20;;;;;;5015896;28;20017;-61
2021/06/17 08:27:37;;;;;;;3.45;2.88;;;26.10;59.40;;;;;;5016246;28;20026;-60
2021/06/17 08:30:05;;;;;;;7.55;3.08;;;26.20;59.50;;;;;;5015952;28;20025;-60
2021/06/17 08:32:30;;;;;;;8.05;3.45;;;26.10;59.50;;;;;;5014565;28;20034;-60
2021/06/17 08:34:56;;;;;;;4.75;2.90;;;26.10;59.50;;;;;;5014904;28;20026;-60
2021/06/17 08:37:22;;;;;;;6.72;2.90;;;26.20;59.50;;;;;;5015800;28;20465;-60
2021/06/17 08:39:49;;;;;;;7.22;2.90;;;26.10;59.40;;;;;;5014089;28;20026;-60
2021/06/17 08:42:15;;;;;;;5.03;2.90;;;26.10;59.60;;;;;;5014650;28;20077;-60
2021/06/17 08:44:42;;;;;;;10.27;3.08;;;26.10;59.70;;;;;;5014721;28;20014;-60
2021/06/17 08:47:08;;;;;;;4.65;2.53;;;26.10;59.80;;;;;;5015635;28;20026;-60
2021/06/17 08:49:33;;;;;;;7.18;2.90;;;26.10;59.70;;;;;;5015693;28;20071;-60
2021/06/17 08:51:59;;;;;;;7.50;2.85;;;26.10;59.60;;;;;;5013962;28;20038;-60
2021/06/17 08:54:26;;;;;;;4.80;2.85;;;26.20;59.50;;;;;;5015813;28;20033;-60
2021/06/17 08:56:53;;;;;;;6.10;2.67;;;26.20;59.70;;;;;;5015478;28;20097;-60
2021/06/17 08:59:19;;;;;;;5.50;2.63;;;26.20;59.80;;;;;;5015423;28;20022;-60
2021/06/17 09:01:54;;;;;;;7.07;2.53;;;26.20;59.80;;;;;;5015322;28;20025;-60
2021/06/17 09:04:27;;;;;;;6.38;2.70;;;26.20;59.70;;;;;;5015300;28;20427;-61
2021/06/17 09:07:09;;;;;;;4.10;2.53;;;26.50;60.00;;;;;;5014569;28;20032;-61
2021/06/17 09:09:43;;;;;;;4.85;2.67;;;26.30;59.60;;;;;;5015462;28;20048;-60
2021/06/17 09:12:11;;;;;;;5.28;2.67;;;26.20;59.60;;;;;;5015055;28;20042;-60
2021/06/17 09:14:38;;;;;;;4.72;2.60;;;26.20;59.60;;;;;;5015280;28;20029;-60
2021/06/17 09:17:07;;;;;;;4.38;2.47;;;26.20;59.60;;;;;;5015115;28;20033;-60
2021/06/17 09:19:43;;;;;;;4.13;2.42;;;26.20;59.50;;;;;;5015305;28;20026;-60
2021/06/17 09:22:11;;;;;;;5.88;2.55;;;26.20;59.50;;;;;;5015382;28;20025;-60
2021/06/17 09:24:38;;;;;;;3.33;2.45;;;26.20;59.50;;;;;;5015249;28;20029;-60
2021/06/17 09:27:39;;;;;;;8.05;2.72;;;26.20;59.50;;;;;;5014952;28;20018;-60
2021/06/17 09:30:10;;;;;;;6.53;2.40;;;26.10;59.40;;;;;;5015133;28;20021;-61
2021/06/17 09:32:45;;;;;;;3.42;2.40;;;26.20;59.50;;;;;;5014829;28;20117;-61
2021/06/17 09:35:15;;;;;;;6.63;2.40;;;26.20;59.50;;;;;;5013772;28;20028;-60
2021/06/17 09:37:40;;;;;;;5.30;2.42;;;26.20;59.60;;;;;;5014819;28;20088;-60
2021/06/17 09:40:26;;;;;;;4.05;2.40;;;26.20;59.60;;;;;;5014634;28;20022;-60
2021/06/17 09:42:55;;;;;;;4.03;2.30;;;26.20;59.50;;;;;;5014662;28;20029;-60
2021/06/17 09:45:22;;;;;;;7.55;2.40;;;26.20;59.60;;;;;;5014760;28;20026;-60
2021/06/17 09:47:48;;;;;;;3.35;2.42;;;26.20;59.60;;;;;;5014832;28;20038;-61
2021/06/17 09:50:25;;;;;;;5.72;2.47;;;26.30;59.60;;;;;;5013170;28;20030;-61
2021/06/17 09:52:52;;;;;;;5.43;2.33;;;26.30;59.50;;;;;;5014301;28;20120;-61
2021/06/17 09:55:42;;;;;;;2.70;2.13;;;26.30;59.30;;;;;;5014400;28;20056;-60
2021/06/17 09:58:12;;;;;;;3.20;2.20;;;26.30;59.20;;;;;;5014681;28;20034;-61
2021/06/17 10:00:56;;;;;;;4.32;2.45;;;26.30;59.10;;;;;;5014560;28;20026;-60
2021/06/17 10:03:22;;;;;;;3.75;2.10;;;26.30;59.10;;;;;;5014386;28;20021;-58
2021/06/17 10:05:48;;;;;;;5.05;2.28;;;26.30;59.10;;;;;;5014346;28;20034;-60
2021/06/17 10:08:14;;;;;;;3.35;2.58;;;26.30;59.70;;;;;;5014114;28;20030;-60
2021/06/17 10:10:40;;;;;;;4.03;2.20;;;26.40;59.20;;;;;;5014098;28;20081;-60
2021/06/17 10:13:08;;;;;;;5.85;2.35;;;26.30;59.10;;;;;;5014131;28;20042;-60
2021/06/17 10:15:34;;;;;;;6.03;2.55;;;26.40;59.20;;;;;;5013937;28;20038;-60
2021/06/17 10:18:00;;;;;;;3.60;2.13;;;26.40;59.10;;;;;;5012978;28;20030;-60
2021/06/17 10:20:25;;;;;;;5.45;2.47;;;26.50;59.80;;;;;;5014236;28;20044;-60
2021/06/17 10:22:52;;;;;;;6.63;2.53;;;26.50;59.10;;;;;;5014212;28;20076;-60
2021/06/17 10:25:25;;;;;;;2.85;2.08;;;26.50;59.10;;;;;;5014171;28;20373;-60
2021/06/17 10:27:57;;;;;;;5.35;2.05;;;26.50;59.00;;;;;;5014601;28;20022;-61
2021/06/17 10:30:41;;;;;;;3.30;2.55;;;26.50;59.00;;;;;;5013861;28;20458;-60
2021/06/17 10:33:07;;;;;;;5.97;2.70;;;26.60;59.10;;;;;;5013996;28;20038;-61
2021/06/17 10:35:34;;;;;;;3.05;2.10;;;26.60;59.20;;;;;;5014015;28;20028;-60
2021/06/17 10:38:03;;;;;;;4.43;2.08;;;26.60;59.10;;;;;;5013679;28;20033;-60
2021/06/17 10:40:30;;;;;;;3.20;2.08;;;26.60;59.00;;;;;;5013587;28;20033;-60
2021/06/17 10:42:57;;;;;;;5.03;2.30;;;26.70;59.00;;;;;;5013593;28;20033;-60
2021/06/17 10:45:46;;;;;;;4.10;1.77;;;26.70;58.90;;;;;;5013726;28;20113;-60
2021/06/17 10:48:14;;;;;;;4.05;2.10;;;26.80;58.80;;;;;;5013571;28;20400;-60
2021/06/17 10:50:42;;;;;;;5.82;2.00;;;26.80;58.80;;;;;;5013610;28;20025;-60
2021/06/17 10:53:34;;;;;;;3.25;2.25;;;26.80;58.70;;;;;;5013629;28;20073;-60
2021/06/17 10:56:03;;;;;;;4.72;2.33;;;26.80;58.70;;;;;;5013437;28;20022;-61
2021/06/17 10:58:41;;;;;;;4.70;2.38;;;26.90;58.60;;;;;;5013675;28;20113;-60
2021/06/17 11:01:28;;;;;;;2.85;1.98;;;26.90;58.60;;;;;;5013587;28;20029;-60
2021/06/17 11:04:10;;;;;;;6.40;2.30;;;26.90;58.40;;;;;;5013370;28;20408;-60
2021/06/17 11:06:49;;;;;;;3.60;2.15;;;26.90;58.40;;;;;;5012024;28;20488;-61
2021/06/17 11:09:40;;;;;;;5.45;2.10;;;26.90;59.00;;;;;;5013483;28;20036;-60
2021/06/17 11:12:20;;;;;;;4.68;2.20;;;26.90;58.30;;;;;;5013192;28;20053;-60
2021/06/17 11:14:54;;;;;;;2.90;2.20;;;26.90;58.20;;;;;;5013188;28;20412;-60
2021/06/17 11:17:29;;;;;;;4.82;2.03;;;27.00;58.00;;;;;;5013505;28;20346;-60
2021/06/17 11:20:06;;;;;;;6.07;2.30;;;27.00;57.70;;;;;;5013327;28;20038;-60
2021/06/17 11:22:49;;;;;;;6.47;2.03;;;27.00;57.40;;;;;;5013365;28;20021;-61
2021/06/17 11:25:17;;;;;;;2.20;2.00;;;27.00;57.20;;;;;;5012996;28;20030;-60
2021/06/17 11:27:57;;;;;;;3.35;1.90;;;27.10;57.00;;;;;;5012941;28;20495;-60
2021/06/17 11:30:38;;;;;;;6.95;2.20;;;27.10;56.80;;;;;;5011479;28;20065;-60
2021/06/17 11:33:24;;;;;;;3.45;2.13;;;27.20;56.60;;;;;;5011572;28;20509;-61
2021/06/17 11:35:51;;;;;;;6.20;2.08;;;27.10;56.30;;;;;;5013116;28;20032;-61
2021/06/17 11:38:28;;;;;;;6.90;2.60;;;27.10;56.10;;;;;;5013089;28;20028;-61
2021/06/17 11:40:54;;;;;;;5.13;2.00;;;27.10;56.00;;;;;;5013099;28;20030;-60
2021/06/17 11:43:28;;;;;;;4.95;1.55;;;27.20;56.10;;;;;;5012697;28;20481;-60
2021/06/17 11:45:54;;;;;;;6.90;1.92;;;27.20;56.00;;;;;;5012803;28;20105;-60
2021/06/17 11:48:22;;;;;;;3.60;1.67;;;27.20;56.00;;;;;;5012992;28;20036;-60
2021/06/17 11:50:51;;;;;;;9.55;1.98;;;27.20;55.90;;;;;;5012897;28;20030;-60
2021/06/17 11:53:18;;;;;;;6.55;1.77;;;27.30;56.00;;;;;;5012871;28;20080;-60
2021/06/17 11:56:04;;;;;;;7.18;2.10;;;27.30;55.90;;;;;;5012943;28;20037;-60
2021/06/17 11:58:37;;;;;;;3.03;1.77;;;27.30;55.70;;;;;;5012631;28;20221;-60
2021/06/17 12:01:09;;;;;;;5.75;1.92;;;27.50;55.90;;;;;;5012648;28;20033;-60
2021/06/17 12:03:34;;;;;;;2.50;1.70;;;27.30;55.70;;;;;;5012300;28;20393;-60
2021/06/17 12:06:09;;;;;;;5.57;1.63;;;27.30;55.70;;;;;;5012503;28;20033;-60
2021/06/17 12:08:34;;;;;;;3.67;1.80;;;27.30;55.70;;;;;;5012531;28;20370;-61
2021/06/17 12:11:15;;;;;;;4.90;1.70;;;27.40;55.80;;;;;;5012604;28;20148;-60
2021/06/17 12:13:49;;;;;;;5.13;1.80;;;27.40;55.80;;;;;;5012802;28;20026;-60
2021/06/17 12:16:18;;;;;;;5.57;2.20;;;27.40;55.80;;;;;;5012819;28;20384;-60
2021/06/17 12:18:43;;;;;;;3.88;1.83;;;27.80;56.10;;;;;;5012737;28;20034;-61
2021/06/17 12:21:09;;;;;;;5.63;1.88;;;27.40;55.80;;;;;;5012497;28;20033;-60
2021/06/17 12:23:34;;;;;;;6.90;2.17;;;27.40;55.90;;;;;;5012470;28;20060;-60
2021/06/17 12:26:06;;;;;;;3.75;1.73;;;27.40;56.00;;;;;;5011248;28;20057;-60
2021/06/17 12:28:49;;;;;;;7.35;2.15;;;27.40;56.00;;;;;;5012715;28;20033;-61
2021/06/17 12:31:36;;;;;;;4.10;2.00;;;27.40;56.70;;;;;;5012586;28;20092;-60
2021/06/17 12:34:13;;;;;;;5.40;2.13;;;27.40;56.10;;;;;;5012440;28;20026;-61
2021/06/17 12:36:43;;;;;;;5.50;2.63;;;27.50;56.20;;;;;;5012585;28;20354;-60
2021/06/17 12:39:12;;;;;;;6.22;2.33;;;27.50;56.20;;;;;;5012999;28;20105;-60
2021/06/17 12:41:43;;;;;;;4.60;2.63;;;27.50;56.30;;;;;;5013595;28;20029;-61
2021/06/17 12:44:09;;;;;;;5.13;2.58;;;27.50;56.30;;;;;;5016085;28;20026;-60
2021/06/17 12:46:40;;;;;;;4.85;2.70;;;27.50;56.30;;;;;;5016112;28;20075;-62
2021/06/17 12:52:06;;;;;;;5.35;2.28;;;27.50;56.30;;;;;;5015501;28;20427;-63
2021/06/17 12:54:37;;;;;;;5.20;2.70;;;27.60;56.50;;;;;;5016064;28;20037;-62
2021/06/17 12:57:23;;;;;;;7.05;2.45;;;27.60;56.50;;;;;;5015715;28;20022;-62
2021/06/17 13:00:15;;;;;;;6.70;2.55;;;27.70;56.60;;;;;;5014699;28;20053;-61
2021/06/17 13:02:44;;;;;;;5.88;2.55;;;27.70;56.60;;;;;;5015923;28;20473;-62
2021/06/17 13:05:18;;;;;;;3.75;2.20;;;27.80;56.40;;;;;;5015556;28;20096;-62